Airfield :
LOGIN :

Register | Disclaimer

   EN    FR    IT 

 










Legend :    VFR   Marginal VFR   IFR   Intensive IFR   Very Intensive IFR
Visi :
Ceiling :
>= 8 km
>= 3000ft
5 to 8 km
1000 to 3000 ft
1500m to 5 km
500 to 1000 ft
800 to 1500m
200 to 500 ft
< 800m
< 200 ft
Symbols :   Thunderstorms  Fog  Heavy snow  Heavy precipitations  Wind > 20 kt
SIGMETs :     Misc.  Thunderstorms  Icing  Turbulence  Mountain Waves  Volcanic Ashes







- Airport Elevation : 215 ft
- IATA code : ABZ
- Download approach charts


EGPD - Aberdeen / Dyce

CURRENT METAR :
  • 170420Z AUTO 19009KT 160V230 9999 BKN017 BKN023 12/10 Q1005 NOSIG

EXPIRED METARs :
  • 170350Z AUTO 18016KT 9999 FEW022 12/10 Q1004 NOSIG
  • 170320Z AUTO 18016KT 9999 FEW011 BKN040 12/10 Q1004 NOSIG
  • 170250Z AUTO 18012KT 9999 BKN009 BKN019 12/10 Q1005 TEMPO SCT009
  • 170220Z AUTO 17012KT 9999 BKN006 OVC010 12/11 Q1005 TEMPO SCT006
  • 170150Z AUTO 15009KT 6000 -RA BKN007/// OVC039/// //////CB 11/10 Q1005 RERA

TAF TAF EGPD
Valid from the 17 at 00:00 until the 18 at 00:00 UTC


162259Z 1700/1724 18009KT 9999 SCT035
TEMPO 1700/1703 6000 RA BKN012
PROB30
TEMPO 1700/1703 3000 +RA BKN005
PROB40
TEMPO 1703/1718 20015G25KT
TEMPO 1711/1718 6000 SHRA
PROB30
TEMPO 1712/1718 3000 +SHRA BKN014CB
No reported NOTAMs for that airfield.
1 SIGMET reported for the Scottish FIR (EGPX) :
 
Severe mountain waves
EGPX SIGMET 01 VALID 170330/170730 EGRR
EGPX SCOTTISH FIR SEV MTW FCST WI N5500 W00407 - N5525 W00442 - N5551 W00229 - N5500 W00140 - N5500 W00407 FL030/180 STNR WKN=



MET'MAP, your aeronautical weather chart ! - Copyright ORBIFLY December 2007 - Disclaimer

ORBIFLY MET'MAP TEAM :

Programming & Development : Alexandra Zaïnal
Concept & Development : Baudouin d'Aumeries
Co-Development & Prog : Marc-Olivier Méhu
Technical & hardware support : Manuel Goepfert

Contact : metmap@orbifly.com




SOURCES & CREDITS :

   NOAA